Time;durP1;ratioP1;P1;durP2;ratioP2;P2;SDS_P1;SDS_P2;PMS_P1;PMS_P2;Temp;Humidity;BMP_temperature;BMP_pressure;BME280_temperature;BME280_humidity;BME280_pressure;Samples;Min_cycle;Max_cycle;Signal;HPM_P1;HPM_P2
2024/01/18 00:01:51;;;;;;;;;2.50;1.75;;;;;1.37;77.21;99373.34;5071455;28;12263;-68
2024/01/18 00:04:18;;;;;;;;;1.75;1.75;;;;;1.35;77.18;99378.84;5066039;28;11572;-68
2024/01/18 00:06:45;;;;;;;;;1.75;1.75;;;;;1.34;77.14;99379.03;5075989;28;11469;-68
2024/01/18 00:09:11;;;;;;;;;3.50;2.00;;;;;1.34;76.99;99379.84;5065058;28;11502;-68
2024/01/18 00:11:38;;;;;;;;;2.00;1.00;;;;;1.32;77.29;99387.13;5071629;28;11493;-68
2024/01/18 00:14:05;;;;;;;;;4.00;1.50;;;;;1.32;77.31;99391.59;5070808;28;11478;-68
2024/01/18 00:16:33;;;;;;;;;4.00;2.00;;;;;1.27;77.25;99392.13;5072089;28;11577;-68
2024/01/18 00:19:00;;;;;;;;;3.50;3.50;;;;;1.22;77.48;99394.44;5066041;28;11501;-68
2024/01/18 00:21:27;;;;;;;;;1.00;1.00;;;;;1.19;77.44;99395.63;5066725;28;11607;-68
2024/01/18 00:23:54;;;;;;;;;2.00;1.00;;;;;1.16;77.80;99389.81;5069667;28;11474;-67
2024/01/18 00:26:21;;;;;;;;;4.00;2.00;;;;;1.12;77.96;99396.44;5087301;28;11489;-68
2024/01/18 00:28:47;;;;;;;;;4.25;1.50;;;;;1.10;78.01;99398.47;5070786;28;12216;-68
2024/01/18 00:31:14;;;;;;;;;2.50;1.75;;;;;1.04;78.07;99396.47;5071229;28;11597;-67
2024/01/18 00:33:41;;;;;;;;;5.00;3.00;;;;;0.98;78.05;99401.44;5062334;28;11546;-68
2024/01/18 00:36:09;;;;;;;;;2.00;2.00;;;;;0.93;78.19;99401.13;5084230;28;11480;-68
2024/01/18 00:38:35;;;;;;;;;3.00;3.00;;;;;0.91;78.55;99410.22;5064694;28;11523;-68
2024/01/18 00:41:02;;;;;;;;;1.75;1.75;;;;;0.89;78.56;99412.22;5052170;28;12266;-68
2024/01/18 00:43:29;;;;;;;;;6.50;4.75;;;;;0.86;78.50;99413.38;5064635;28;11494;-68
2024/01/18 00:45:55;;;;;;;;;4.00;4.00;;;;;0.86;78.73;99417.88;5068027;28;11511;-67
2024/01/18 00:48:22;;;;;;;;;1.00;1.00;;;;;0.84;79.12;99420.66;5072702;28;11548;-68
2024/01/18 00:50:49;;;;;;;;;3.75;1.50;;;;;0.84;79.09;99418.00;5062859;28;11479;-67
2024/01/18 00:53:15;;;;;;;;;3.50;3.50;;;;;0.82;78.89;99427.13;5070787;28;11532;-67
2024/01/18 00:55:42;;;;;;;;;5.25;4.00;;;;;0.80;79.10;99426.47;5071274;28;11571;-68
2024/01/18 00:58:10;;;;;;;;;1.00;1.00;;;;;0.78;79.13;99429.28;5053604;28;11617;-67
2024/01/18 01:00:36;;;;;;;;;3.50;3.00;;;;;0.77;79.06;99434.72;5056218;28;11511;-67
2024/01/18 01:03:03;;;;;;;;;5.50;3.50;;;;;0.76;79.05;99441.84;5066839;28;11452;-67
2024/01/18 01:05:30;;;;;;;;;4.50;3.00;;;;;0.74;79.20;99446.50;5062702;28;11504;-67
2024/01/18 01:07:56;;;;;;;;;2.25;2.25;;;;;0.69;79.30;99436.41;5086555;28;11474;-68
2024/01/18 01:10:23;;;;;;;;;4.75;4.00;;;;;0.65;79.06;99450.97;5071002;28;11492;-67
2024/01/18 01:12:50;;;;;;;;;4.00;4.00;;;;;0.62;79.37;99451.28;5085062;28;11492;-68
2024/01/18 01:15:16;;;;;;;;;4.00;3.50;;;;;0.61;79.57;99456.72;5068290;28;11524;-67
2024/01/18 01:17:43;;;;;;;;;3.25;3.25;;;;;0.62;79.55;99476.94;5073247;28;11528;-68
2024/01/18 01:20:10;;;;;;;;;4.00;3.75;;;;;0.59;79.49;99471.97;5067986;28;11548;-67
2024/01/18 01:22:37;;;;;;;;;4.00;4.00;;;;;0.49;79.67;99472.97;5064668;28;11486;-67
2024/01/18 01:25:04;;;;;;;;;2.25;2.25;;;;;0.49;80.03;99480.06;5064300;28;11477;-67
2024/01/18 01:27:31;;;;;;;;;0.00;0.00;;;;;0.53;79.68;99477.91;5065884;28;11462;-67
2024/01/18 01:29:57;;;;;;;;;2.25;0.75;;;;;0.58;80.29;99473.78;5071117;28;12245;-67
2024/01/18 01:32:24;;;;;;;;;0.00;0.00;;;;;0.66;79.46;99475.63;5062510;28;11506;-67
2024/01/18 01:34:51;;;;;;;;;0.00;0.00;;;;;0.72;79.25;99475.78;5068805;28;12239;-67
2024/01/18 01:37:18;;;;;;;;;0.00;0.00;;;;;0.77;79.25;99474.47;5069279;28;11480;-67
2024/01/18 01:39:44;;;;;;;;;0.00;0.00;;;;;0.79;78.81;99480.44;5068671;28;11596;-67
2024/01/18 01:42:11;;;;;;;;;0.00;0.00;;;;;0.79;78.91;99483.91;5063203;28;11593;-67
2024/01/18 01:44:37;;;;;;;;;1.00;1.00;;;;;0.81;78.71;99489.03;5060283;28;12243;-67
2024/01/18 01:47:04;;;;;;;;;0.00;0.00;;;;;0.84;78.88;99488.72;5069346;28;11465;-67
2024/01/18 01:49:31;;;;;;;;;0.00;0.00;;;;;0.84;78.83;99489.53;5069047;28;11495;-67
2024/01/18 01:51:58;;;;;;;;;0.75;0.50;;;;;0.83;78.79;99484.41;5069681;28;11630;-68
2024/01/18 01:54:29;;;;;;;;;0.00;0.00;;;;;0.82;78.87;99485.41;5065914;28;11580;-67
2024/01/18 01:56:58;;;;;;;;;0.00;0.00;;;;;0.81;78.76;99478.44;5059061;28;11500;-67
2024/01/18 01:59:25;;;;;;;;;0.00;0.00;;;;;0.78;78.79;99481.44;5070158;28;11477;-67
2024/01/18 02:01:52;;;;;;;;;0.00;0.00;;;;;0.73;78.72;99485.41;5069550;28;11480;-67
2024/01/18 02:04:20;;;;;;;;;0.00;0.00;;;;;0.73;79.01;99490.69;5077459;28;11598;-67
2024/01/18 02:06:51;;;;;;;;;0.00;0.00;;;;;0.70;79.05;99498.16;5070221;28;11597;-67
2024/01/18 02:09:18;;;;;;;;;0.00;0.00;;;;;0.69;79.27;99493.84;5082824;28;11512;-67
2024/01/18 02:11:45;;;;;;;;;0.00;0.00;;;;;0.66;78.90;99496.81;5051354;28;11572;-67
2024/01/18 02:14:13;;;;;;;;;0.00;0.00;;;;;0.64;79.41;99496.13;5083498;22;12305;-68
2024/01/18 02:16:39;;;;;;;;;0.00;0.00;;;;;0.61;79.17;99491.16;5042619;28;11500;-67
2024/01/18 02:19:06;;;;;;;;;0.00;0.00;;;;;0.56;79.38;99496.94;5044185;28;11506;-66
2024/01/18 02:21:33;;;;;;;;;0.00;0.00;;;;;0.54;79.33;99492.81;5055265;28;11513;-69
2024/01/18 02:24:16;;;;;;;;;0.00;0.00;;;;;0.50;79.83;99502.91;5050737;28;11566;-68
2024/01/18 02:26:43;;;;;;;;;0.00;0.00;;;;;0.47;79.71;99513.81;5041792;28;11608;-66
2024/01/18 02:29:09;;;;;;;;;1.75;0.00;;;;;0.45;79.39;99518.47;5050000;28;11499;-67
2024/01/18 02:31:36;;;;;;;;;0.00;0.00;;;;;0.41;79.76;99517.13;5049849;28;11482;-68
2024/01/18 02:34:09;;;;;;;;;0.50;0.50;;;;;0.38;79.78;99507.66;5049867;28;12230;-66
2024/01/18 02:36:36;;;;;;;;;0.00;0.00;;;;;0.36;80.06;99517.56;5049375;28;11610;-68
2024/01/18 02:39:03;;;;;;;;;0.50;0.50;;;;;0.35;80.13;99504.50;5064979;28;11476;-67
2024/01/18 02:41:31;;;;;;;;;0.25;0.00;;;;;0.34;80.26;99514.28;5039964;28;12296;-67
2024/01/18 02:44:00;;;;;;;;;0.00;0.00;;;;;0.33;80.34;99522.41;5048953;28;11570;-66
2024/01/18 02:46:30;;;;;;;;;0.00;0.00;;;;;0.29;80.37;99524.53;5057324;28;11615;-65
2024/01/18 02:48:57;;;;;;;;;1.50;0.00;;;;;0.28;80.04;99525.50;5033342;28;11511;-67
2024/01/18 02:51:24;;;;;;;;;0.00;0.00;;;;;0.27;80.21;99523.03;5048121;28;11530;-66
2024/01/18 02:53:50;;;;;;;;;0.25;0.25;;;;;0.24;80.51;99513.56;5052013;28;11464;-66
2024/01/18 02:56:17;;;;;;;;;1.00;0.00;;;;;0.24;80.28;99518.88;5040869;28;11507;-66
2024/01/18 02:58:44;;;;;;;;;0.00;0.00;;;;;0.23;80.70;99527.81;5054509;28;11457;-66
2024/01/18 03:01:10;;;;;;;;;0.00;0.00;;;;;0.24;80.57;99524.16;5032192;28;12252;-68
2024/01/18 03:03:37;;;;;;;;;0.00;0.00;;;;;0.22;80.46;99526.97;5049212;28;11520;-70
2024/01/18 03:06:04;;;;;;;;;0.50;0.50;;;;;0.22;80.62;99529.63;5031621;28;11591;-69
2024/01/18 03:08:30;;;;;;;;;1.75;0.00;;;;;0.21;80.71;99522.69;5050082;28;11475;-68
2024/01/18 03:10:57;;;;;;;;;0.50;0.50;;;;;0.21;80.63;99525.31;5045462;28;11651;-69
2024/01/18 03:13:24;;;;;;;;;0.00;0.00;;;;;0.21;80.93;99527.16;5046565;28;11551;-66
2024/01/18 03:15:50;;;;;;;;;0.00;0.00;;;;;0.22;81.21;99523.50;5036488;28;11510;-68
2024/01/18 03:18:17;;;;;;;;;0.00;0.00;;;;;0.22;80.84;99526.16;5051226;28;11671;-67
2024/01/18 03:20:44;;;;;;;;;1.75;0.00;;;;;0.20;80.96;99522.81;5038258;28;11557;-67
2024/01/18 03:23:10;;;;;;;;;0.00;0.00;;;;;0.19;81.16;99523.81;5059708;28;11493;-67
2024/01/18 03:25:37;;;;;;;;;0.00;0.00;;;;;0.21;80.86;99529.78;5046230;28;11558;-67
2024/01/18 03:28:04;;;;;;;;;0.00;0.00;;;;;0.20;81.04;99525.47;5048713;28;11532;-68
2024/01/18 03:30:31;;;;;;;;;1.00;0.00;;;;;0.18;80.73;99522.16;5043598;28;12255;-67
2024/01/18 03:32:57;;;;;;;;;1.00;1.00;;;;;0.13;80.63;99529.75;5047561;28;11527;-66
2024/01/18 03:35:24;;;;;;;;;1.50;0.25;;;;;0.12;80.83;99526.28;5043613;28;11623;-67
2024/01/18 03:37:51;;;;;;;;;0.00;0.00;;;;;0.11;81.08;99537.84;5042323;28;12200;-66
2024/01/18 03:40:17;;;;;;;;;0.50;0.50;;;;;0.11;81.42;99537.00;5045247;28;11533;-65
2024/01/18 03:42:44;;;;;;;;;1.00;0.00;;;;;0.10;81.17;99538.00;5052998;28;11494;-68
2024/01/18 03:45:10;;;;;;;;;0.50;0.50;;;;;0.11;81.18;99537.84;5055641;28;11491;-67
2024/01/18 03:47:37;;;;;;;;;1.00;1.00;;;;;0.15;81.12;99541.00;5046843;28;11523;-66
2024/01/18 03:50:05;;;;;;;;;0.00;0.00;;;;;0.14;80.83;99536.69;5045988;28;11477;-69
2024/01/18 03:52:31;;;;;;;;;1.25;0.25;;;;;0.12;80.80;99534.22;5049868;28;11632;-68
2024/01/18 03:54:58;;;;;;;;;1.00;1.00;;;;;0.11;80.99;99551.06;5044666;28;11506;-66
2024/01/18 03:57:25;;;;;;;;;0.75;0.00;;;;;0.12;81.49;99543.97;5046647;28;12272;-66
2024/01/18 03:59:51;;;;;;;;;0.00;0.00;;;;;0.12;81.09;99536.03;5051461;28;12300;-66
2024/01/18 04:02:18;;;;;;;;;0.00;0.00;;;;;0.12;80.71;99536.03;5051102;28;11478;-66
2024/01/18 04:04:44;;;;;;;;;1.00;1.00;;;;;0.09;81.12;99537.19;5043523;28;11487;-66
2024/01/18 04:07:11;;;;;;;;;2.50;2.50;;;;;0.09;81.05;99541.66;5047790;28;11501;-66
2024/01/18 04:09:38;;;;;;;;;1.00;1.00;;;;;0.08;81.07;99524.09;5040878;28;11478;-66
2024/01/18 04:12:05;;;;;;;;;1.00;1.00;;;;;0.06;80.89;99526.09;5054526;28;11496;-66
2024/01/18 04:14:31;;;;;;;;;0.00;0.00;;;;;0.06;81.18;99539.31;5038464;28;11595;-66
2024/01/18 04:16:58;;;;;;;;;0.50;0.50;;;;;0.06;81.45;99542.78;5045879;28;11584;-66
2024/01/18 04:19:24;;;;;;;;;0.00;0.00;;;;;0.07;81.29;99541.78;5046088;28;12181;-66
2024/01/18 04:21:51;;;;;;;;;1.00;1.00;;;;;0.05;81.44;99546.44;5031494;28;11485;-66
2024/01/18 04:24:18;;;;;;;;;2.25;2.25;;;;;0.03;81.41;99537.81;5033810;28;11554;-67
2024/01/18 04:26:45;;;;;;;;;0.50;0.50;;;;;0.02;81.57;99553.84;5046674;28;11588;-66
2024/01/18 04:29:12;;;;;;;;;2.25;2.25;;;;;0.02;81.28;99546.72;5050147;28;11494;-66
2024/01/18 04:31:39;;;;;;;;;1.25;1.25;;;;;0.02;81.43;99561.78;5037247;28;11523;-66
2024/01/18 04:34:06;;;;;;;;;3.00;0.50;;;;;0.02;81.51;99553.84;5045404;28;11490;-66
2024/01/18 04:36:33;;;;;;;;;1.00;1.00;;;;;-0.01;81.15;99555.81;5050194;28;11491;-66
2024/01/18 04:39:00;;;;;;;;;1.00;1.00;;;;;-0.03;81.12;99560.44;5041586;28;11491;-66
2024/01/18 04:41:26;;;;;;;;;3.00;3.00;;;;;-0.06;81.58;99562.56;5056436;28;11498;-66
2024/01/18 04:43:53;;;;;;;;;0.00;0.00;;;;;-0.07;81.62;99574.97;5043491;28;12026;-65
2024/01/18 04:46:20;;;;;;;;;1.00;1.00;;;;;-0.07;81.59;99582.91;5066887;28;11500;-65
2024/01/18 04:48:46;;;;;;;;;1.00;1.00;;;;;-0.07;81.41;99590.84;5042980;28;11495;-66
2024/01/18 04:51:13;;;;;;;;;1.00;1.00;;;;;-0.04;81.52;99602.91;5030116;28;11531;-66
2024/01/18 04:53:40;;;;;;;;;1.00;1.00;;;;;-0.05;81.81;99594.13;5047232;28;11617;-66
2024/01/18 04:56:07;;;;;;;;;1.00;1.00;;;;;-0.04;81.42;99592.31;5046313;28;11595;-66
2024/01/18 04:58:33;;;;;;;;;3.00;1.00;;;;;-0.07;81.81;99590.84;5050484;28;11551;-66
2024/01/18 05:01:01;;;;;;;;;3.00;3.00;;;;;-0.08;81.90;99594.47;5032844;28;11612;-66
2024/01/18 05:03:28;;;;;;;;;3.25;3.00;;;;;-0.08;81.46;99598.91;5030874;28;11522;-66
2024/01/18 05:05:57;;;;;;;;;1.75;1.75;;;;;-0.11;81.49;99597.44;5022741;28;11522;-65
2024/01/18 05:08:24;;;;;;;;;2.75;2.75;;;;;-0.14;81.49;99600.38;5045015;28;12351;-65
2024/01/18 05:10:51;;;;;;;;;3.00;3.00;;;;;-0.16;81.71;99596.22;5044930;28;11503;-66
2024/01/18 05:13:17;;;;;;;;;3.00;3.00;;;;;-0.18;81.66;99601.66;5055167;28;11536;-66
2024/01/18 05:15:44;;;;;;;;;5.25;2.25;;;;;-0.17;82.05;99603.31;5053337;28;11478;-66
2024/01/18 05:18:10;;;;;;;;;2.50;1.50;;;;;-0.18;81.71;99604.31;5031417;28;11517;-66
2024/01/18 05:20:37;;;;;;;;;0.75;0.75;;;;;-0.19;81.64;99607.94;5047137;28;11497;-66
2024/01/18 05:23:06;;;;;;;;;1.00;1.00;;;;;-0.21;81.67;99609.91;5054980;28;11479;-66
2024/01/18 05:25:32;;;;;;;;;1.75;1.00;;;;;-0.22;81.76;99608.25;5051575;28;12241;-66
2024/01/18 05:28:02;;;;;;;;;1.00;1.00;;;;;-0.22;81.64;99618.00;5042185;28;11520;-66
2024/01/18 05:30:28;;;;;;;;;2.50;2.50;;;;;-0.25;82.16;99622.59;5040433;28;11612;-67
2024/01/18 05:32:55;;;;;;;;;2.00;2.00;;;;;-0.26;82.22;99625.41;5044085;28;11504;-66
2024/01/18 05:35:22;;;;;;;;;2.50;2.50;;;;;-0.28;81.67;99632.69;5049149;28;11497;-66
2024/01/18 05:37:49;;;;;;;;;2.00;2.00;;;;;-0.29;82.07;99631.84;5053236;28;11593;-66
2024/01/18 05:40:16;;;;;;;;;3.00;3.00;;;;;-0.30;82.41;99634.66;5042292;28;11633;-67
2024/01/18 05:42:42;;;;;;;;;2.75;1.00;;;;;-0.30;82.04;99632.81;5042552;28;11550;-66
2024/01/18 05:45:09;;;;;;;;;3.00;3.00;;;;;-0.31;82.17;99631.19;5050028;28;11595;-66
2024/01/18 05:47:36;;;;;;;;;3.75;3.75;;;;;-0.31;82.16;99633.00;5050266;28;11524;-66
2024/01/18 05:50:03;;;;;;;;;3.00;1.00;;;;;-0.32;81.99;99645.38;5043202;28;11654;-66
2024/01/18 05:52:29;;;;;;;;;8.25;3.75;;;;;-0.34;82.03;99647.34;5035229;28;11526;-67
2024/01/18 05:54:56;;;;;;;;;1.00;1.00;;;;;-0.36;82.09;99640.56;5038974;28;11529;-67
2024/01/18 05:57:24;;;;;;;;;3.00;2.25;;;;;-0.36;82.18;99648.50;5044354;28;11508;-67
2024/01/18 05:59:51;;;;;;;;;3.50;3.50;;;;;-0.36;82.13;99648.50;5029152;28;11494;-66
2024/01/18 06:02:20;;;;;;;;;3.00;3.00;;;;;-0.40;82.19;99647.97;5048355;28;11531;-67
2024/01/18 06:04:47;;;;;;;;;3.75;3.75;;;;;-0.39;81.95;99649.63;5036929;28;11522;-66
2024/01/18 06:07:14;;;;;;;;;3.00;3.00;;;;;-0.39;82.39;99654.06;5037760;28;11544;-66
2024/01/18 06:09:40;;;;;;;;;3.75;3.50;;;;;-0.40;81.63;99657.72;5033521;28;11611;-66
2024/01/18 06:12:07;;;;;;;;;2.75;1.50;;;;;-0.42;82.06;99657.84;5053489;28;11576;-67
2024/01/18 06:14:34;;;;;;;;;5.00;3.50;;;;;-0.43;82.19;99660.66;5061897;28;11571;-67
2024/01/18 06:17:00;;;;;;;;;6.00;6.00;;;;;-0.44;82.32;99662.47;5035588;28;11615;-67
2024/01/18 06:19:27;;;;;;;;;5.25;4.00;;;;;-0.45;82.12;99662.59;5045892;28;11693;-68
2024/01/18 06:21:54;;;;;;;;;6.50;4.00;;;;;-0.45;82.32;99663.44;5041089;28;11573;-68
2024/01/18 06:24:21;;;;;;;;;6.00;3.75;;;;;-0.44;82.42;99680.16;5050917;28;11504;-67
2024/01/18 06:26:47;;;;;;;;;3.00;3.00;;;;;-0.45;82.13;99681.94;5044104;28;11490;-66
2024/01/18 06:29:16;;;;;;;;;3.25;3.00;;;;;-0.48;81.81;99684.91;5048683;28;11513;-66
2024/01/18 06:31:43;;;;;;;;;4.50;4.00;;;;;-0.50;82.41;99685.03;5047246;28;11561;-68
2024/01/18 06:34:10;;;;;;;;;4.00;4.00;;;;;-0.51;82.08;99690.50;5038785;28;11638;-66
2024/01/18 06:36:37;;;;;;;;;5.50;3.00;;;;;-0.50;82.11;99689.50;5039943;28;11493;-66
2024/01/18 06:39:04;;;;;;;;;4.75;4.75;;;;;-0.51;82.12;99693.97;5061443;28;11549;-66
2024/01/18 06:41:30;;;;;;;;;5.25;3.50;;;;;-0.52;81.93;99697.59;5053260;28;11521;-66
2024/01/18 06:43:57;;;;;;;;;5.25;4.75;;;;;-0.52;82.54;99700.25;5047954;28;11512;-66
2024/01/18 06:46:24;;;;;;;;;5.00;5.00;;;;;-0.53;82.48;99701.22;5048961;28;11505;-67
2024/01/18 06:48:53;;;;;;;;;4.00;3.00;;;;;-0.53;82.09;99703.88;5046976;28;11564;-66
2024/01/18 06:51:21;;;;;;;;;5.50;5.50;;;;;-0.51;82.44;99707.19;5068609;28;11617;-66
2024/01/18 06:53:48;;;;;;;;;8.75;8.00;;;;;-0.53;82.37;99700.38;5039020;28;11661;-69
2024/01/18 06:56:15;;;;;;;;;9.00;8.00;;;;;-0.54;82.41;99698.72;5044196;28;11726;-65
2024/01/18 06:58:42;;;;;;;;;7.00;7.00;;;;;-0.54;82.16;99707.47;5069120;28;11513;-65
2024/01/18 07:01:09;;;;;;;;;6.75;6.75;;;;;-0.54;82.48;99720.69;5051804;28;11510;-69
2024/01/18 07:03:36;;;;;;;;;6.25;5.75;;;;;-0.56;81.94;99713.91;5053835;28;11617;-66
2024/01/18 07:06:04;;;;;;;;;6.50;6.25;;;;;-0.58;81.99;99723.78;5053981;28;11514;-67
2024/01/18 07:08:31;;;;;;;;;5.75;5.75;;;;;-0.59;82.51;99716.84;5043467;28;11514;-69
2024/01/18 07:10:58;;;;;;;;;9.00;7.00;;;;;-0.60;82.04;99721.31;5051998;28;12346;-66
2024/01/18 07:13:26;;;;;;;;;9.50;8.75;;;;;-0.61;82.57;99730.22;5039198;28;11541;-69
2024/01/18 07:15:53;;;;;;;;;10.50;7.50;;;;;-0.61;82.14;99727.56;5034190;28;11633;-66
2024/01/18 07:18:20;;;;;;;;;9.50;8.75;;;;;-0.60;82.55;99731.88;5015520;28;11526;-65
2024/01/18 07:20:47;;;;;;;;;7.00;7.00;;;;;-0.58;82.29;99745.75;5033141;28;11607;-67
2024/01/18 07:23:14;;;;;;;;;13.00;9.00;;;;;-0.58;82.43;99750.22;5061839;28;11495;-67
2024/01/18 07:25:41;;;;;;;;;10.00;8.00;;;;;-0.57;82.67;99749.22;5048194;28;11569;-66
2024/01/18 07:28:07;;;;;;;;;10.50;8.50;;;;;-0.57;82.46;99754.50;5033039;28;11562;-67
2024/01/18 07:30:34;;;;;;;;;6.75;6.75;;;;;-0.55;82.28;99757.84;5015091;28;11505;-66
2024/01/18 07:33:01;;;;;;;;;4.00;4.00;;;;;-0.53;82.45;99756.72;5041953;28;11501;-66
2024/01/18 07:35:28;;;;;;;;;6.00;6.00;;;;;-0.54;82.86;99760.34;5052191;28;11650;-65
2024/01/18 07:37:54;;;;;;;;;5.50;4.00;;;;;-0.54;81.83;99757.69;5051466;28;11497;-65
2024/01/18 07:40:21;;;;;;;;;7.00;6.00;;;;;-0.54;82.47;99764.78;5068326;28;11626;-66
2024/01/18 07:42:47;;;;;;;;;4.50;4.50;;;;;-0.54;82.34;99768.25;5050258;28;11579;-68
2024/01/18 07:45:14;;;;;;;;;6.00;6.00;;;;;-0.55;82.25;99766.59;5052437;28;11481;-66
2024/01/18 07:47:43;;;;;;;;;6.00;4.50;;;;;-0.54;82.09;99773.56;5049652;28;11588;-66
2024/01/18 07:50:09;;;;;;;;;5.00;5.00;;;;;-0.55;82.09;99781.63;5052781;28;11527;-66
2024/01/18 07:52:56;;;;;;;;;3.25;3.25;;;;;-0.56;82.39;99780.81;5066642;28;11601;-66
2024/01/18 07:55:24;;;;;;;;;4.25;4.25;;;;;-0.58;82.23;99789.84;5051622;28;11518;-67
2024/01/18 07:57:51;;;;;;;;;9.00;5.75;;;;;-0.55;82.07;99797.50;5052604;28;12210;-66
2024/01/18 08:00:18;;;;;;;;;9.25;7.50;;;;;-0.53;82.20;99798.16;5051256;28;11541;-66
2024/01/18 08:02:45;;;;;;;;;10.50;8.00;;;;;-0.54;82.01;99804.44;5050143;28;11524;-65
2024/01/18 08:05:12;;;;;;;;;6.00;6.00;;;;;-0.55;82.20;99816.00;5051260;28;11512;-64
2024/01/18 08:07:39;;;;;;;;;7.75;6.25;;;;;-0.55;82.21;99813.34;5051957;28;11527;-66
2024/01/18 08:10:08;;;;;;;;;9.00;8.50;;;;;-0.52;82.34;99816.53;5052120;28;11496;-66
2024/01/18 08:12:36;;;;;;;;;9.00;9.00;;;;;-0.51;82.48;99815.56;5042522;28;11644;-67
2024/01/18 08:15:04;;;;;;;;;10.00;6.00;;;;;-0.45;82.15;99818.56;5031014;28;11491;-69
2024/01/18 08:17:31;;;;;;;;;7.50;7.50;;;;;-0.42;82.19;99823.56;5035917;28;11515;-69
2024/01/18 08:19:58;;;;;;;;;3.75;3.75;;;;;-0.37;81.93;99821.31;5050342;28;11569;-69
2024/01/18 08:22:25;;;;;;;;;5.50;5.50;;;;;-0.33;82.30;99830.59;5056734;28;12250;-71
2024/01/18 08:24:51;;;;;;;;;7.00;6.25;;;;;-0.29;82.02;99835.44;5058543;28;11519;-69
2024/01/18 08:27:18;;;;;;;;;5.50;4.75;;;;;-0.25;82.45;99835.97;5048180;28;11620;-70
2024/01/18 08:29:45;;;;;;;;;6.00;3.25;;;;;-0.19;82.30;99829.28;5059735;28;11577;-68
2024/01/18 08:32:11;;;;;;;;;3.25;3.25;;;;;-0.09;82.56;99835.31;5071382;28;11501;-69
2024/01/18 08:34:38;;;;;;;;;7.00;6.75;;;;;0.01;82.35;99849.31;5052409;28;11569;-70
2024/01/18 08:37:08;;;;;;;;;4.75;4.25;;;;;0.03;81.51;99854.44;5040419;28;12282;-69
2024/01/18 08:39:35;;;;;;;;;5.25;5.25;;;;;0.05;81.52;99865.72;5047318;28;11505;-69
2024/01/18 08:42:02;;;;;;;;;4.00;4.00;;;;;0.09;81.33;99862.63;5030391;28;11518;-70
2024/01/18 08:44:29;;;;;;;;;5.00;5.00;;;;;0.15;81.68;99866.47;5030267;28;11525;-68
2024/01/18 08:46:56;;;;;;;;;6.25;6.25;;;;;0.19;80.93;99873.13;5046974;28;12314;-69
2024/01/18 08:49:26;;;;;;;;;6.50;5.00;;;;;0.26;80.94;99876.84;5031749;28;11485;-69
2024/01/18 08:51:52;;;;;;;;;7.00;5.25;;;;;0.28;80.92;99880.16;5041537;28;11506;-69
2024/01/18 08:54:22;;;;;;;;;8.00;5.50;;;;;0.34;80.63;99884.03;5033574;28;11514;-67
2024/01/18 08:56:49;;;;;;;;;6.00;6.00;;;;;0.37;80.38;99889.03;5053088;28;11544;-69
2024/01/18 08:59:16;;;;;;;;;4.00;2.25;;;;;0.41;80.66;99893.84;5034297;28;11519;-68
2024/01/18 09:01:42;;;;;;;;;4.75;4.00;;;;;0.47;80.21;99898.53;5051178;28;11571;-69
2024/01/18 09:04:09;;;;;;;;;2.00;2.00;;;;;0.53;80.14;99896.25;5051246;28;11505;-69
2024/01/18 09:06:37;;;;;;;;;5.00;5.00;;;;;0.55;79.85;99895.13;5066434;28;11518;-68
2024/01/18 09:09:09;;;;;;;;;8.50;5.75;;;;;0.61;80.10;99902.47;5064892;28;11651;-69
2024/01/18 09:11:37;;;;;;;;;4.00;4.00;;;;;0.68;79.96;99907.97;5051006;28;11503;-68
2024/01/18 09:14:04;;;;;;;;;4.50;4.50;;;;;0.74;80.06;99904.72;5051273;28;11611;-69
2024/01/18 09:16:31;;;;;;;;;2.00;2.00;;;;;0.82;79.84;99906.59;5051190;28;11517;-69
2024/01/18 09:18:58;;;;;;;;;4.50;3.50;;;;;0.90;79.80;99907.47;5049856;28;11506;-69
2024/01/18 09:21:44;;;;;;;;;3.75;3.75;;;;;1.01;79.65;99913.50;5061887;28;12204;-69
2024/01/18 09:24:12;;;;;;;;;2.25;2.25;;;;;1.09;79.47;99922.31;5046573;28;11474;-70
2024/01/18 09:26:39;;;;;;;;;6.50;2.50;;;;;1.16;79.28;99923.38;5031073;28;11485;-69
2024/01/18 09:29:06;;;;;;;;;1.00;1.00;;;;;1.24;78.96;99933.19;5031267;28;11490;-69
2024/01/18 09:31:33;;;;;;;;;2.00;2.00;;;;;1.33;79.16;99932.25;5030949;28;11480;-69
2024/01/18 09:34:08;;;;;;;;;4.00;4.00;;;;;1.44;78.58;99928.50;5031038;28;11497;-69
2024/01/18 09:36:36;;;;;;;;;5.50;4.00;;;;;1.53;78.59;99937.34;5040536;28;11550;-68
2024/01/18 09:39:08;;;;;;;;;5.00;4.00;;;;;1.59;78.60;99940.19;5049469;28;11477;-69
2024/01/18 09:41:35;;;;;;;;;2.00;2.00;;;;;1.66;78.49;99946.53;5050732;28;11498;-70
2024/01/18 09:44:03;;;;;;;;;5.00;5.00;;;;;1.72;78.18;99943.22;5065835;28;11494;-69
2024/01/18 09:46:30;;;;;;;;;5.00;2.50;;;;;1.81;77.96;99954.72;5049382;28;11474;-70
2024/01/18 09:48:57;;;;;;;;;2.00;2.00;;;;;1.90;77.75;99964.34;5050318;28;11512;-67
2024/01/18 09:51:31;;;;;;;;;4.00;4.00;;;;;2.02;77.82;99980.00;5049248;28;11653;-69
2024/01/18 09:54:00;;;;;;;;;4.50;2.00;;;;;2.15;77.11;99996.34;5029230;28;11508;-70
2024/01/18 09:56:28;;;;;;;;;5.50;5.50;;;;;2.18;77.02;100011.91;5030617;28;11512;-70
2024/01/18 09:58:56;;;;;;;;;7.75;5.50;;;;;2.13;76.65;100015.06;5030508;28;11577;-69
2024/01/18 10:01:24;;;;;;;;;6.50;5.00;;;;;2.01;76.17;100028.78;5028800;28;11534;-69
2024/01/18 10:03:51;;;;;;;;;1.50;1.50;;;;;1.91;76.97;100023.59;5030180;28;11642;-69
2024/01/18 10:06:19;;;;;;;;;1.00;1.00;;;;;1.72;77.99;100033.44;5030335;28;11510;-69
2024/01/18 10:08:51;;;;;;;;;2.00;1.00;;;;;1.68;79.37;100025.94;5030368;28;11556;-68
2024/01/18 10:11:19;;;;;;;;;2.00;1.50;;;;;1.66;79.98;100036.72;5030156;28;11495;-69
2024/01/18 10:13:55;;;;;;;;;1.25;1.00;;;;;1.61;80.72;100043.47;5045527;28;11514;-69
2024/01/18 10:16:33;;;;;;;;;1.00;1.00;;;;;1.60;81.31;100060.38;5029678;28;11488;-68
2024/01/18 10:19:02;;;;;;;;;0.75;0.75;;;;;1.71;82.75;100073.41;5029224;28;11519;-69
2024/01/18 10:21:30;;;;;;;;;7.00;3.50;;;;;1.86;82.84;100082.44;5029986;28;11518;-68
2024/01/18 10:23:58;;;;;;;;;7.00;1.25;;;;;2.00;83.27;100075.72;5028756;28;11570;-69
2024/01/18 10:26:29;;;;;;;;;1.25;1.25;;;;;2.11;82.95;100067.50;5031369;28;11530;-68
2024/01/18 10:28:57;;;;;;;;;4.00;1.25;;;;;2.12;82.40;100073.63;5030178;28;11585;-69
2024/01/18 10:31:28;;;;;;;;;1.25;0.75;;;;;2.05;82.60;100078.72;5028633;28;11511;-69
2024/01/18 10:33:55;;;;;;;;;1.00;1.00;;;;;2.09;82.88;100089.88;5045300;28;11520;-69
2024/01/18 10:36:22;;;;;;;;;1.00;1.00;;;;;2.20;83.38;100097.56;5028824;28;11494;-69
2024/01/18 10:38:49;;;;;;;;;1.50;1.00;;;;;2.25;82.95;100100.56;5029774;28;11506;-69
2024/01/18 10:41:19;;;;;;;;;3.50;2.00;;;;;2.20;82.74;100103.72;5033913;28;11587;-69
2024/01/18 10:43:48;;;;;;;;;3.50;1.75;;;;;2.14;82.85;100098.19;5065047;28;11508;-69
2024/01/18 10:46:15;;;;;;;;;2.50;1.00;;;;;2.02;83.37;100099.44;5049798;28;11499;-69
2024/01/18 10:48:46;;;;;;;;;0.75;0.75;;;;;1.94;83.28;100098.41;5049832;28;12200;-69
2024/01/18 10:51:13;;;;;;;;;2.50;0.50;;;;;1.89;84.20;100100.69;5049506;28;11575;-68
2024/01/18 10:53:41;;;;;;;;;0.00;0.00;;;;;1.87;84.41;100104.50;5065286;28;11513;-70
2024/01/18 10:56:08;;;;;;;;;0.00;0.00;;;;;1.88;84.37;100109.66;5049756;28;11540;-70
2024/01/18 10:58:35;;;;;;;;;0.00;0.00;;;;;1.87;84.73;100108.00;5039035;28;11529;-69
2024/01/18 11:01:03;;;;;;;;;1.00;1.00;;;;;1.85;84.75;100109.13;5045257;28;12224;-68
2024/01/18 11:03:31;;;;;;;;;0.00;0.00;;;;;1.85;84.84;100125.06;5029581;28;11579;-67
2024/01/18 11:06:00;;;;;;;;;1.00;1.00;;;;;1.86;85.42;100121.41;5029892;28;11488;-70
2024/01/18 11:08:28;;;;;;;;;2.00;0.00;;;;;1.95;85.70;100123.16;5029982;28;12257;-68
2024/01/18 11:10:55;;;;;;;;;1.00;1.00;;;;;2.02;85.79;100121.50;5029258;28;11574;-66
2024/01/18 11:13:22;;;;;;;;;4.00;1.50;;;;;2.08;86.00;100125.38;5053663;28;11570;-67
2024/01/18 11:15:52;;;;;;;;;1.25;1.25;;;;;2.13;85.72;100133.69;5039589;28;11528;-68
2024/01/18 11:18:21;;;;;;;;;1.25;1.25;;;;;2.16;85.97;100133.38;5029642;28;12358;-67
2024/01/18 11:21:04;;;;;;;;;1.25;1.25;;;;;2.22;86.04;100138.06;5012269;28;11481;-71
2024/01/18 11:23:39;;;;;;;;;0.00;0.00;;;;;2.26;86.11;100136.75;5029922;28;11491;-69
2024/01/18 11:26:08;;;;;;;;;1.25;1.25;;;;;2.28;86.23;100137.44;5029737;28;11513;-69
2024/01/18 11:28:35;;;;;;;;;1.00;1.00;;;;;2.31;86.23;100141.59;5029819;28;11522;-69
2024/01/18 11:31:02;;;;;;;;;1.00;0.00;;;;;2.34;86.42;100142.09;5049642;28;11599;-70
2024/01/18 11:33:31;;;;;;;;;0.00;0.00;;;;;2.42;86.15;100143.97;5033261;28;12326;-69
2024/01/18 11:35:58;;;;;;;;;0.00;0.00;;;;;2.62;86.85;100160.50;5048488;28;11505;-68
2024/01/18 11:38:32;;;;;;;;;1.00;1.00;;;;;2.82;86.35;100166.41;5056480;28;11473;-72